sensor_id;sensor_type;location;lat;lon;timestamp;P1;durP1;ratioP1;P2;durP2;ratioP2
20458;SDS011;10388;52.314;7.938;2023-06-04T00:05:30;1.83;;;1.50;;
20458;SDS011;10388;52.314;7.938;2023-06-04T00:08:11;4.07;;;2.03;;
20458;SDS011;10388;52.314;7.938;2023-06-04T00:10:47;2.70;;;1.50;;
20458;SDS011;10388;52.314;7.938;2023-06-04T00:13:31;2.73;;;1.60;;
20458;SDS011;10388;52.314;7.938;2023-06-04T01:10:26;14.87;;;13.97;;
20458;SDS011;10388;52.314;7.938;2023-06-04T01:13:31;14.50;;;13.53;;
20458;SDS011;10388;52.314;7.938;2023-06-04T03:32:33;9.03;;;8.33;;
20458;SDS011;10388;52.314;7.938;2023-06-04T03:35:03;10.30;;;9.70;;
20458;SDS011;10388;52.314;7.938;2023-06-04T03:37:34;10.20;;;9.20;;
20458;SDS011;10388;52.314;7.938;2023-06-04T03:40:05;9.13;;;8.57;;
20458;SDS011;10388;52.314;7.938;2023-06-04T03:42:36;8.33;;;7.83;;
20458;SDS011;10388;52.314;7.938;2023-06-04T03:45:07;9.00;;;8.53;;
20458;SDS011;10388;52.314;7.938;2023-06-04T03:47:38;9.50;;;8.90;;
20458;SDS011;10388;52.314;7.938;2023-06-04T03:50:09;10.70;;;9.77;;
20458;SDS011;10388;52.314;7.938;2023-06-04T03:52:39;8.93;;;8.37;;
20458;SDS011;10388;52.314;7.938;2023-06-04T03:55:10;10.57;;;9.87;;
20458;SDS011;10388;52.314;7.938;2023-06-04T03:57:43;9.90;;;9.30;;
20458;SDS011;10388;52.314;7.938;2023-06-04T04:00:14;9.90;;;9.40;;
20458;SDS011;10388;52.314;7.938;2023-06-04T04:02:45;11.97;;;11.17;;
20458;SDS011;10388;52.314;7.938;2023-06-04T04:05:16;10.33;;;9.17;;
20458;SDS011;10388;52.314;7.938;2023-06-04T04:07:46;9.90;;;9.10;;
20458;SDS011;10388;52.314;7.938;2023-06-04T04:10:18;6.67;;;6.27;;
20458;SDS011;10388;52.314;7.938;2023-06-04T04:12:48;6.60;;;6.20;;
20458;SDS011;10388;52.314;7.938;2023-06-04T04:15:20;8.50;;;7.93;;
20458;SDS011;10388;52.314;7.938;2023-06-04T04:17:51;11.47;;;9.10;;
20458;SDS011;10388;52.314;7.938;2023-06-04T04:20:21;10.33;;;9.63;;
20458;SDS011;10388;52.314;7.938;2023-06-04T04:22:52;11.67;;;10.90;;
20458;SDS011;10388;52.314;7.938;2023-06-04T04:25:22;11.73;;;10.83;;
20458;SDS011;10388;52.314;7.938;2023-06-04T04:27:53;11.07;;;10.47;;
20458;SDS011;10388;52.314;7.938;2023-06-04T04:30:26;9.37;;;8.77;;
20458;SDS011;10388;52.314;7.938;2023-06-04T04:32:58;10.37;;;9.77;;
20458;SDS011;10388;52.314;7.938;2023-06-04T04:35:29;10.50;;;9.90;;
20458;SDS011;10388;52.314;7.938;2023-06-04T04:38:02;10.53;;;9.83;;
20458;SDS011;10388;52.314;7.938;2023-06-04T04:40:35;11.90;;;11.03;;
20458;SDS011;10388;52.314;7.938;2023-06-04T04:43:06;10.20;;;9.60;;
20458;SDS011;10388;52.314;7.938;2023-06-04T04:45:37;12.50;;;11.67;;
20458;SDS011;10388;52.314;7.938;2023-06-04T04:48:07;13.47;;;12.77;;
20458;SDS011;10388;52.314;7.938;2023-06-04T04:50:38;12.27;;;11.60;;
20458;SDS011;10388;52.314;7.938;2023-06-04T04:53:08;11.53;;;10.93;;
20458;SDS011;10388;52.314;7.938;2023-06-04T04:55:39;11.33;;;10.67;;
20458;SDS011;10388;52.314;7.938;2023-06-04T04:58:10;11.53;;;10.80;;
20458;SDS011;10388;52.314;7.938;2023-06-04T05:00:40;12.27;;;11.50;;
20458;SDS011;10388;52.314;7.938;2023-06-04T05:03:11;12.73;;;12.03;;
20458;SDS011;10388;52.314;7.938;2023-06-04T05:05:42;13.13;;;12.30;;
20458;SDS011;10388;52.314;7.938;2023-06-04T05:08:13;13.23;;;12.47;;
20458;SDS011;10388;52.314;7.938;2023-06-04T05:10:44;13.17;;;12.33;;
20458;SDS011;10388;52.314;7.938;2023-06-04T05:13:14;11.80;;;10.93;;
20458;SDS011;10388;52.314;7.938;2023-06-04T05:15:45;11.80;;;10.87;;
20458;SDS011;10388;52.314;7.938;2023-06-04T05:18:18;11.60;;;10.80;;
20458;SDS011;10388;52.314;7.938;2023-06-04T05:20:51;11.43;;;10.70;;
20458;SDS011;10388;52.314;7.938;2023-06-04T05:23:22;10.77;;;9.90;;
20458;SDS011;10388;52.314;7.938;2023-06-04T05:25:52;11.27;;;10.53;;
20458;SDS011;10388;52.314;7.938;2023-06-04T05:28:23;9.53;;;8.73;;
20458;SDS011;10388;52.314;7.938;2023-06-04T05:30:56;9.43;;;8.77;;
20458;SDS011;10388;52.314;7.938;2023-06-04T05:33:30;10.53;;;9.83;;
20458;SDS011;10388;52.314;7.938;2023-06-04T05:36:01;9.00;;;8.40;;
20458;SDS011;10388;52.314;7.938;2023-06-04T05:38:32;9.17;;;8.50;;
20458;SDS011;10388;52.314;7.938;2023-06-04T05:41:03;9.07;;;8.20;;
20458;SDS011;10388;52.314;7.938;2023-06-04T05:43:33;9.40;;;8.70;;
20458;SDS011;10388;52.314;7.938;2023-06-04T05:46:04;9.23;;;8.67;;
20458;SDS011;10388;52.314;7.938;2023-06-04T05:48:36;9.90;;;9.23;;
20458;SDS011;10388;52.314;7.938;2023-06-04T05:51:06;9.47;;;8.80;;
20458;SDS011;10388;52.314;7.938;2023-06-04T05:53:37;9.23;;;8.57;;
20458;SDS011;10388;52.314;7.938;2023-06-04T05:56:07;8.90;;;8.23;;
20458;SDS011;10388;52.314;7.938;2023-06-04T05:58:38;13.03;;;12.23;;
20458;SDS011;10388;52.314;7.938;2023-06-04T06:01:09;10.27;;;9.50;;
20458;SDS011;10388;52.314;7.938;2023-06-04T06:03:39;9.33;;;8.73;;
20458;SDS011;10388;52.314;7.938;2023-06-04T06:06:10;9.70;;;9.10;;
20458;SDS011;10388;52.314;7.938;2023-06-04T06:08:43;8.97;;;8.27;;
20458;SDS011;10388;52.314;7.938;2023-06-04T06:11:14;12.10;;;11.20;;
20458;SDS011;10388;52.314;7.938;2023-06-04T06:13:45;8.83;;;8.20;;
20458;SDS011;10388;52.314;7.938;2023-06-04T06:16:16;10.30;;;9.73;;
20458;SDS011;10388;52.314;7.938;2023-06-04T06:18:47;11.40;;;10.47;;
20458;SDS011;10388;52.314;7.938;2023-06-04T06:21:17;12.67;;;11.77;;
20458;SDS011;10388;52.314;7.938;2023-06-04T06:23:48;13.03;;;12.30;;
20458;SDS011;10388;52.314;7.938;2023-06-04T06:26:18;11.80;;;11.10;;
20458;SDS011;10388;52.314;7.938;2023-06-04T06:28:49;11.00;;;10.43;;
20458;SDS011;10388;52.314;7.938;2023-06-04T06:31:19;20.43;;;19.33;;
20458;SDS011;10388;52.314;7.938;2023-06-04T06:33:50;10.80;;;10.17;;
20458;SDS011;10388;52.314;7.938;2023-06-04T06:36:21;13.93;;;12.87;;
20458;SDS011;10388;52.314;7.938;2023-06-04T06:38:51;11.47;;;10.83;;
20458;SDS011;10388;52.314;7.938;2023-06-04T06:41:22;12.83;;;12.00;;
20458;SDS011;10388;52.314;7.938;2023-06-04T06:43:52;15.80;;;14.77;;
20458;SDS011;10388;52.314;7.938;2023-06-04T06:46:23;31.10;;;29.50;;
20458;SDS011;10388;52.314;7.938;2023-06-04T06:48:53;12.60;;;11.90;;
20458;SDS011;10388;52.314;7.938;2023-06-04T06:51:24;16.30;;;15.23;;
20458;SDS011;10388;52.314;7.938;2023-06-04T06:53:55;22.33;;;21.17;;
20458;SDS011;10388;52.314;7.938;2023-06-04T06:56:25;18.93;;;17.80;;
20458;SDS011;10388;52.314;7.938;2023-06-04T06:58:56;19.87;;;18.70;;
20458;SDS011;10388;52.314;7.938;2023-06-04T07:01:26;17.23;;;16.30;;
20458;SDS011;10388;52.314;7.938;2023-06-04T07:03:57;17.03;;;16.13;;
20458;SDS011;10388;52.314;7.938;2023-06-04T07:06:28;18.63;;;17.67;;
20458;SDS011;10388;52.314;7.938;2023-06-04T07:08:58;21.40;;;20.27;;
20458;SDS011;10388;52.314;7.938;2023-06-04T07:11:29;20.30;;;19.27;;
20458;SDS011;10388;52.314;7.938;2023-06-04T07:13:59;18.13;;;17.17;;
20458;SDS011;10388;52.314;7.938;2023-06-04T07:16:32;20.43;;;19.37;;
20458;SDS011;10388;52.314;7.938;2023-06-04T07:19:02;19.50;;;18.33;;
20458;SDS011;10388;52.314;7.938;2023-06-04T07:21:33;20.93;;;19.87;;
20458;SDS011;10388;52.314;7.938;2023-06-04T07:24:04;22.10;;;20.90;;
20458;SDS011;10388;52.314;7.938;2023-06-04T07:26:34;24.83;;;23.37;;
20458;SDS011;10388;52.314;7.938;2023-06-04T07:29:05;24.70;;;23.43;;
20458;SDS011;10388;52.314;7.938;2023-06-04T07:31:35;24.10;;;22.90;;
20458;SDS011;10388;52.314;7.938;2023-06-04T07:34:06;47.03;;;44.60;;
20458;SDS011;10388;52.314;7.938;2023-06-04T07:36:36;25.10;;;23.90;;
20458;SDS011;10388;52.314;7.938;2023-06-04T07:39:07;24.13;;;22.93;;
20458;SDS011;10388;52.314;7.938;2023-06-04T07:41:37;27.87;;;26.43;;
20458;SDS011;10388;52.314;7.938;2023-06-04T07:44:08;24.57;;;23.30;;
20458;SDS011;10388;52.314;7.938;2023-06-04T07:46:38;25.97;;;24.63;;
20458;SDS011;10388;52.314;7.938;2023-06-04T07:49:09;26.63;;;25.30;;
20458;SDS011;10388;52.314;7.938;2023-06-04T07:51:39;104.03;;;98.97;;
20458;SDS011;10388;52.314;7.938;2023-06-04T07:54:10;34.07;;;32.27;;
20458;SDS011;10388;52.314;7.938;2023-06-04T07:56:41;36.20;;;34.40;;
20458;SDS011;10388;52.314;7.938;2023-06-04T07:59:11;34.67;;;32.93;;
20458;SDS011;10388;52.314;7.938;2023-06-04T08:01:42;43.87;;;41.77;;
20458;SDS011;10388;52.314;7.938;2023-06-04T08:04:12;34.97;;;33.27;;
20458;SDS011;10388;52.314;7.938;2023-06-04T08:06:43;35.40;;;33.53;;
20458;SDS011;10388;52.314;7.938;2023-06-04T08:09:13;48.33;;;45.87;;
20458;SDS011;10388;52.314;7.938;2023-06-04T08:11:44;44.80;;;42.43;;
20458;SDS011;10388;52.314;7.938;2023-06-04T08:14:15;42.70;;;40.60;;
20458;SDS011;10388;52.314;7.938;2023-06-04T08:16:46;197.17;;;187.17;;
20458;SDS011;10388;52.314;7.938;2023-06-04T08:19:16;50.27;;;47.80;;
20458;SDS011;10388;52.314;7.938;2023-06-04T08:21:47;55.63;;;52.90;;
20458;SDS011;10388;52.314;7.938;2023-06-04T08:24:17;45.80;;;43.50;;
20458;SDS011;10388;52.314;7.938;2023-06-04T08:26:48;65.47;;;62.27;;
20458;SDS011;10388;52.314;7.938;2023-06-04T08:29:20;51.60;;;48.90;;
20458;SDS011;10388;52.314;7.938;2023-06-04T08:31:50;51.40;;;48.83;;
20458;SDS011;10388;52.314;7.938;2023-06-04T08:34:21;55.33;;;52.63;;
20458;SDS011;10388;52.314;7.938;2023-06-04T08:36:52;63.07;;;59.97;;
20458;SDS011;10388;52.314;7.938;2023-06-04T08:39:22;59.77;;;56.90;;
20458;SDS011;10388;52.314;7.938;2023-06-04T08:41:54;121.70;;;115.37;;
20458;SDS011;10388;52.314;7.938;2023-06-04T08:44:31;70.27;;;66.83;;
20458;SDS011;10388;52.314;7.938;2023-06-04T08:47:02;58.77;;;55.90;;
20458;SDS011;10388;52.314;7.938;2023-06-04T08:49:34;59.80;;;56.87;;
20458;SDS011;10388;52.314;7.938;2023-06-04T08:52:06;63.87;;;60.67;;
20458;SDS011;10388;52.314;7.938;2023-06-04T08:54:37;67.43;;;64.13;;
20458;SDS011;10388;52.314;7.938;2023-06-04T08:57:08;76.07;;;72.33;;
20458;SDS011;10388;52.314;7.938;2023-06-04T08:59:39;87.63;;;83.03;;
20458;SDS011;10388;52.314;7.938;2023-06-04T09:02:10;61.90;;;58.80;;
20458;SDS011;10388;52.314;7.938;2023-06-04T09:04:42;74.63;;;70.60;;
20458;SDS011;10388;52.314;7.938;2023-06-04T09:07:13;60.03;;;57.13;;
20458;SDS011;10388;52.314;7.938;2023-06-04T09:09:45;77.93;;;74.17;;
20458;SDS011;10388;52.314;7.938;2023-06-04T09:12:17;54.00;;;51.17;;
20458;SDS011;10388;52.314;7.938;2023-06-04T09:14:53;67.50;;;64.20;;
20458;SDS011;10388;52.314;7.938;2023-06-04T09:17:24;69.80;;;66.40;;
20458;SDS011;10388;52.314;7.938;2023-06-04T09:19:55;61.23;;;58.17;;
20458;SDS011;10388;52.314;7.938;2023-06-04T09:22:35;88.13;;;83.87;;
20458;SDS011;10388;52.314;7.938;2023-06-04T09:25:07;93.77;;;89.17;;
20458;SDS011;10388;52.314;7.938;2023-06-04T09:27:56;79.90;;;76.07;;
20458;SDS011;10388;52.314;7.938;2023-06-04T09:30:35;123.60;;;117.03;;
20458;SDS011;10388;52.314;7.938;2023-06-04T09:33:06;133.60;;;126.60;;
20458;SDS011;10388;52.314;7.938;2023-06-04T09:35:38;83.17;;;78.93;;
20458;SDS011;10388;52.314;7.938;2023-06-04T09:38:08;86.30;;;82.17;;
20458;SDS011;10388;52.314;7.938;2023-06-04T09:40:40;103.10;;;97.87;;
20458;SDS011;10388;52.314;7.938;2023-06-04T09:43:11;91.23;;;86.73;;
20458;SDS011;10388;52.314;7.938;2023-06-04T09:45:52;76.10;;;72.33;;
20458;SDS011;10388;52.314;7.938;2023-06-04T09:48:23;97.17;;;92.40;;
20458;SDS011;10388;52.314;7.938;2023-06-04T09:50:53;111.90;;;106.60;;
20458;SDS011;10388;52.314;7.938;2023-06-04T09:53:24;103.80;;;98.80;;
20458;SDS011;10388;52.314;7.938;2023-06-04T09:55:58;116.03;;;110.30;;
20458;SDS011;10388;52.314;7.938;2023-06-04T09:58:30;109.77;;;104.43;;
20458;SDS011;10388;52.314;7.938;2023-06-04T10:01:03;136.57;;;129.90;;
20458;SDS011;10388;52.314;7.938;2023-06-04T10:03:35;449.87;;;422.33;;
20458;SDS011;10388;52.314;7.938;2023-06-04T10:06:06;180.93;;;171.77;;
20458;SDS011;10388;52.314;7.938;2023-06-04T10:08:37;124.00;;;118.03;;
20458;SDS011;10388;52.314;7.938;2023-06-04T10:11:12;127.80;;;121.53;;
20458;SDS011;10388;52.314;7.938;2023-06-04T10:16:17;158.17;;;150.23;;
20458;SDS011;10388;52.314;7.938;2023-06-04T10:18:51;138.33;;;131.33;;
20458;SDS011;10388;52.314;7.938;2023-06-04T10:21:22;152.60;;;144.97;;
20458;SDS011;10388;52.314;7.938;2023-06-04T10:23:53;194.43;;;184.87;;
20458;SDS011;10388;52.314;7.938;2023-06-04T10:26:24;153.60;;;145.97;;
20458;SDS011;10388;52.314;7.938;2023-06-04T10:28:58;174.33;;;165.77;;
20458;SDS011;10388;52.314;7.938;2023-06-04T10:31:32;165.63;;;157.40;;
20458;SDS011;10388;52.314;7.938;2023-06-04T10:34:02;170.63;;;162.10;;
20458;SDS011;10388;52.314;7.938;2023-06-04T10:36:41;180.70;;;171.93;;
20458;SDS011;10388;52.314;7.938;2023-06-04T10:39:24;192.97;;;183.57;;
20458;SDS011;10388;52.314;7.938;2023-06-04T10:42:02;196.20;;;186.43;;
20458;SDS011;10388;52.314;7.938;2023-06-04T10:44:46;189.03;;;179.77;;
20458;SDS011;10388;52.314;7.938;2023-06-04T10:47:19;238.03;;;226.17;;
20458;SDS011;10388;52.314;7.938;2023-06-04T10:49:54;197.50;;;187.73;;
20458;SDS011;10388;52.314;7.938;2023-06-04T10:52:25;263.43;;;250.33;;
20458;SDS011;10388;52.314;7.938;2023-06-04T10:55:02;225.93;;;214.70;;
20458;SDS011;10388;52.314;7.938;2023-06-04T10:57:33;249.67;;;237.57;;
20458;SDS011;10388;52.314;7.938;2023-06-04T11:00:04;222.23;;;210.90;;
20458;SDS011;10388;52.314;7.938;2023-06-04T11:02:49;210.80;;;200.40;;
20458;SDS011;10388;52.314;7.938;2023-06-04T11:05:22;181.13;;;172.33;;
20458;SDS011;10388;52.314;7.938;2023-06-04T11:08:03;214.43;;;204.03;;
20458;SDS011;10388;52.314;7.938;2023-06-04T11:10:37;216.50;;;206.07;;
20458;SDS011;10388;52.314;7.938;2023-06-04T11:13:15;354.53;;;335.47;;
20458;SDS011;10388;52.314;7.938;2023-06-04T11:15:45;219.70;;;208.97;;
20458;SDS011;10388;52.314;7.938;2023-06-04T11:18:21;212.23;;;201.77;;
20458;SDS011;10388;52.314;7.938;2023-06-04T11:20:59;223.70;;;212.60;;
20458;SDS011;10388;52.314;7.938;2023-06-04T11:23:32;241.13;;;229.10;;
20458;SDS011;10388;52.314;7.938;2023-06-04T11:26:03;261.17;;;248.03;;
20458;SDS011;10388;52.314;7.938;2023-06-04T11:28:34;222.17;;;211.13;;
20458;SDS011;10388;52.314;7.938;2023-06-04T11:31:04;237.67;;;225.97;;
20458;SDS011;10388;52.314;7.938;2023-06-04T11:33:42;261.27;;;248.30;;
20458;SDS011;10388;52.314;7.938;2023-06-04T11:36:27;201.10;;;190.93;;
20458;SDS011;10388;52.314;7.938;2023-06-04T11:38:59;218.00;;;207.27;;
20458;SDS011;10388;52.314;7.938;2023-06-04T11:41:34;254.73;;;242.20;;
20458;SDS011;10388;52.314;7.938;2023-06-04T11:44:06;279.23;;;265.40;;
20458;SDS011;10388;52.314;7.938;2023-06-04T11:46:39;267.63;;;254.23;;
20458;SDS011;10388;52.314;7.938;2023-06-04T11:49:20;274.70;;;260.90;;
20458;SDS011;10388;52.314;7.938;2023-06-04T11:51:51;289.00;;;274.53;;
20458;SDS011;10388;52.314;7.938;2023-06-04T11:54:22;257.50;;;244.67;;
20458;SDS011;10388;52.314;7.938;2023-06-04T11:56:53;307.57;;;292.03;;
20458;SDS011;10388;52.314;7.938;2023-06-04T11:59:24;303.83;;;288.60;;
20458;SDS011;10388;52.314;7.938;2023-06-04T12:01:55;310.60;;;294.30;;
20458;SDS011;10388;52.314;7.938;2023-06-04T12:04:29;261.50;;;248.23;;
20458;SDS011;10388;52.314;7.938;2023-06-04T12:07:01;331.40;;;314.53;;
20458;SDS011;10388;52.314;7.938;2023-06-04T12:09:34;309.73;;;293.83;;
20458;SDS011;10388;52.314;7.938;2023-06-04T12:12:06;366.00;;;346.50;;
20458;SDS011;10388;52.314;7.938;2023-06-04T12:14:38;345.57;;;327.90;;
20458;SDS011;10388;52.314;7.938;2023-06-04T12:17:09;309.20;;;293.77;;
20458;SDS011;10388;52.314;7.938;2023-06-04T12:19:46;335.90;;;319.20;;
20458;SDS011;10388;52.314;7.938;2023-06-04T12:22:18;314.47;;;298.57;;
20458;SDS011;10388;52.314;7.938;2023-06-04T12:24:55;312.57;;;296.87;;
20458;SDS011;10388;52.314;7.938;2023-06-04T12:27:28;300.57;;;285.33;;
20458;SDS011;10388;52.314;7.938;2023-06-04T12:29:59;306.47;;;290.93;;
20458;SDS011;10388;52.314;7.938;2023-06-04T12:32:34;323.53;;;307.03;;
20458;SDS011;10388;52.314;7.938;2023-06-04T12:35:05;336.00;;;318.73;;
20458;SDS011;10388;52.314;7.938;2023-06-04T12:37:36;319.77;;;303.60;;
20458;SDS011;10388;52.314;7.938;2023-06-04T12:40:07;303.07;;;287.70;;
20458;SDS011;10388;52.314;7.938;2023-06-04T12:42:39;439.33;;;415.00;;
20458;SDS011;10388;52.314;7.938;2023-06-04T12:45:10;296.17;;;281.10;;
20458;SDS011;10388;52.314;7.938;2023-06-04T12:47:42;293.40;;;278.77;;
20458;SDS011;10388;52.314;7.938;2023-06-04T12:50:12;291.33;;;276.70;;
20458;SDS011;10388;52.314;7.938;2023-06-04T12:52:43;320.53;;;304.10;;
20458;SDS011;10388;52.314;7.938;2023-06-04T12:55:13;302.70;;;287.10;;
20458;SDS011;10388;52.314;7.938;2023-06-04T12:57:45;329.87;;;313.27;;
20458;SDS011;10388;52.314;7.938;2023-06-04T13:00:16;324.27;;;307.73;;
20458;SDS011;10388;52.314;7.938;2023-06-04T13:02:46;316.07;;;300.03;;
20458;SDS011;10388;52.314;7.938;2023-06-04T13:05:17;316.17;;;299.93;;
20458;SDS011;10388;52.314;7.938;2023-06-04T13:07:47;298.43;;;283.30;;
20458;SDS011;10388;52.314;7.938;2023-06-04T13:10:18;344.47;;;326.67;;
20458;SDS011;10388;52.314;7.938;2023-06-04T13:12:48;324.23;;;307.40;;
20458;SDS011;10388;52.314;7.938;2023-06-04T13:15:19;360.43;;;341.63;;
20458;SDS011;10388;52.314;7.938;2023-06-04T13:17:49;312.40;;;296.70;;
20458;SDS011;10388;52.314;7.938;2023-06-04T13:20:20;364.67;;;345.97;;
20458;SDS011;10388;52.314;7.938;2023-06-04T13:22:50;318.73;;;302.43;;
20458;SDS011;10388;52.314;7.938;2023-06-04T13:25:21;317.93;;;301.97;;
20458;SDS011;10388;52.314;7.938;2023-06-04T13:27:51;313.73;;;297.97;;
20458;SDS011;10388;52.314;7.938;2023-06-04T13:30:22;324.40;;;307.87;;
20458;SDS011;10388;52.314;7.938;2023-06-04T13:32:53;331.13;;;314.07;;
20458;SDS011;10388;52.314;7.938;2023-06-04T13:35:24;337.10;;;320.00;;
20458;SDS011;10388;52.314;7.938;2023-06-04T13:37:54;347.07;;;329.57;;
20458;SDS011;10388;52.314;7.938;2023-06-04T13:40:25;319.23;;;303.30;;
20458;SDS011;10388;52.314;7.938;2023-06-04T13:42:56;339.57;;;322.20;;
20458;SDS011;10388;52.314;7.938;2023-06-04T13:45:26;417.27;;;393.80;;
20458;SDS011;10388;52.314;7.938;2023-06-04T13:47:57;322.03;;;305.87;;
20458;SDS011;10388;52.314;7.938;2023-06-04T13:50:32;307.53;;;292.23;;
20458;SDS011;10388;52.314;7.938;2023-06-04T13:53:03;361.70;;;342.73;;
20458;SDS011;10388;52.314;7.938;2023-06-04T13:55:34;305.93;;;290.87;;
20458;SDS011;10388;52.314;7.938;2023-06-04T13:58:05;321.13;;;305.23;;
20458;SDS011;10388;52.314;7.938;2023-06-04T14:00:35;329.50;;;313.10;;
20458;SDS011;10388;52.314;7.938;2023-06-04T14:03:06;335.57;;;318.47;;
20458;SDS011;10388;52.314;7.938;2023-06-04T14:05:36;341.00;;;323.37;;
20458;SDS011;10388;52.314;7.938;2023-06-04T14:08:07;441.37;;;417.00;;
20458;SDS011;10388;52.314;7.938;2023-06-04T14:10:37;308.70;;;293.20;;
20458;SDS011;10388;52.314;7.938;2023-06-04T14:13:10;325.20;;;309.03;;
20458;SDS011;10388;52.314;7.938;2023-06-04T14:15:41;329.87;;;313.30;;
20458;SDS011;10388;52.314;7.938;2023-06-04T14:18:12;320.30;;;304.37;;
20458;SDS011;10388;52.314;7.938;2023-06-04T14:20:42;304.60;;;289.53;;
20458;SDS011;10388;52.314;7.938;2023-06-04T14:23:13;307.10;;;291.70;;
20458;SDS011;10388;52.314;7.938;2023-06-04T14:25:43;314.33;;;298.53;;
20458;SDS011;10388;52.314;7.938;2023-06-04T14:28:14;318.03;;;301.90;;
20458;SDS011;10388;52.314;7.938;2023-06-04T14:30:44;312.03;;;296.43;;
20458;SDS011;10388;52.314;7.938;2023-06-04T14:33:15;332.97;;;316.17;;
20458;SDS011;10388;52.314;7.938;2023-06-04T14:35:48;308.50;;;293.30;;
20458;SDS011;10388;52.314;7.938;2023-06-04T14:38:19;330.77;;;314.13;;
20458;SDS011;10388;52.314;7.938;2023-06-04T14:40:50;422.90;;;398.60;;
20458;SDS011;10388;52.314;7.938;2023-06-04T14:43:20;317.77;;;301.90;;
20458;SDS011;10388;52.314;7.938;2023-06-04T14:45:51;309.70;;;294.30;;
20458;SDS011;10388;52.314;7.938;2023-06-04T14:48:21;357.67;;;338.13;;
20458;SDS011;10388;52.314;7.938;2023-06-04T14:50:52;326.03;;;309.93;;
20458;SDS011;10388;52.314;7.938;2023-06-04T14:53:24;312.80;;;297.50;;
20458;SDS011;10388;52.314;7.938;2023-06-04T14:55:55;320.27;;;304.37;;
20458;SDS011;10388;52.314;7.938;2023-06-04T14:58:25;309.63;;;294.27;;
20458;SDS011;10388;52.314;7.938;2023-06-04T15:00:56;319.83;;;303.87;;
20458;SDS011;10388;52.314;7.938;2023-06-04T15:03:28;329.93;;;313.23;;
20458;SDS011;10388;52.314;7.938;2023-06-04T15:05:59;328.10;;;311.90;;
20458;SDS011;10388;52.314;7.938;2023-06-04T15:08:29;420.30;;;397.53;;
20458;SDS011;10388;52.314;7.938;2023-06-04T15:11:00;309.90;;;294.57;;
20458;SDS011;10388;52.314;7.938;2023-06-04T15:13:30;341.93;;;323.73;;
20458;SDS011;10388;52.314;7.938;2023-06-04T15:16:01;335.97;;;318.47;;
20458;SDS011;10388;52.314;7.938;2023-06-04T15:18:33;325.73;;;309.53;;
20458;SDS011;10388;52.314;7.938;2023-06-04T15:21:03;305.90;;;290.67;;
20458;SDS011;10388;52.314;7.938;2023-06-04T15:23:34;328.43;;;312.13;;
20458;SDS011;10388;52.314;7.938;2023-06-04T15:26:04;317.77;;;301.80;;
20458;SDS011;10388;52.314;7.938;2023-06-04T15:28:35;338.53;;;321.20;;
20458;SDS011;10388;52.314;7.938;2023-06-04T15:31:06;323.57;;;307.33;;
20458;SDS011;10388;52.314;7.938;2023-06-04T15:33:36;317.70;;;301.53;;
20458;SDS011;10388;52.314;7.938;2023-06-04T15:36:07;323.07;;;306.83;;
20458;SDS011;10388;52.314;7.938;2023-06-04T15:38:37;318.37;;;302.30;;
20458;SDS011;10388;52.314;7.938;2023-06-04T15:41:08;352.07;;;334.43;;
20458;SDS011;10388;52.314;7.938;2023-06-04T15:43:39;320.00;;;304.10;;
20458;SDS011;10388;52.314;7.938;2023-06-04T15:46:09;328.10;;;311.83;;
20458;SDS011;10388;52.314;7.938;2023-06-04T15:48:40;362.57;;;344.03;;
20458;SDS011;10388;52.314;7.938;2023-06-04T15:51:10;331.67;;;314.97;;
20458;SDS011;10388;52.314;7.938;2023-06-04T15:53:41;344.90;;;327.50;;
20458;SDS011;10388;52.314;7.938;2023-06-04T15:56:11;337.23;;;320.00;;
20458;SDS011;10388;52.314;7.938;2023-06-04T15:58:45;361.80;;;343.40;;
20458;SDS011;10388;52.314;7.938;2023-06-04T16:01:16;339.47;;;322.47;;
20458;SDS011;10388;52.314;7.938;2023-06-04T16:03:46;342.57;;;325.10;;
20458;SDS011;10388;52.314;7.938;2023-06-04T16:06:18;309.37;;;293.83;;
20458;SDS011;10388;52.314;7.938;2023-06-04T16:08:49;315.07;;;299.53;;
20458;SDS011;10388;52.314;7.938;2023-06-04T16:11:19;318.63;;;302.57;;
20458;SDS011;10388;52.314;7.938;2023-06-04T16:13:50;321.20;;;305.17;;
20458;SDS011;10388;52.314;7.938;2023-06-04T16:16:20;327.10;;;310.80;;
20458;SDS011;10388;52.314;7.938;2023-06-04T16:18:51;362.03;;;343.53;;
20458;SDS011;10388;52.314;7.938;2023-06-04T16:21:21;314.93;;;299.17;;
20458;SDS011;10388;52.314;7.938;2023-06-04T16:23:52;330.77;;;313.70;;
20458;SDS011;10388;52.314;7.938;2023-06-04T16:26:23;328.60;;;312.37;;
20458;SDS011;10388;52.314;7.938;2023-06-04T16:28:53;314.63;;;298.70;;
20458;SDS011;10388;52.314;7.938;2023-06-04T16:31:24;315.93;;;299.77;;
20458;SDS011;10388;52.314;7.938;2023-06-04T16:33:54;312.50;;;296.87;;
20458;SDS011;10388;52.314;7.938;2023-06-04T16:36:25;326.90;;;310.70;;
20458;SDS011;10388;52.314;7.938;2023-06-04T16:38:55;330.50;;;313.53;;
20458;SDS011;10388;52.314;7.938;2023-06-04T16:41:26;302.07;;;287.27;;
20458;SDS011;10388;52.314;7.938;2023-06-04T16:43:56;309.10;;;293.63;;
20458;SDS011;10388;52.314;7.938;2023-06-04T16:46:27;314.37;;;298.87;;
20458;SDS011;10388;52.314;7.938;2023-06-04T16:48:58;319.77;;;303.93;;
20458;SDS011;10388;52.314;7.938;2023-06-04T16:51:28;333.17;;;316.53;;
20458;SDS011;10388;52.314;7.938;2023-06-04T16:53:59;324.93;;;308.93;;
20458;SDS011;10388;52.314;7.938;2023-06-04T16:56:29;338.63;;;321.87;;
20458;SDS011;10388;52.314;7.938;2023-06-04T16:59:00;331.40;;;314.73;;
20458;SDS011;10388;52.314;7.938;2023-06-04T17:01:31;365.33;;;346.60;;
20458;SDS011;10388;52.314;7.938;2023-06-04T17:04:01;288.87;;;274.53;;
20458;SDS011;10388;52.314;7.938;2023-06-04T17:06:32;345.73;;;327.97;;
20458;SDS011;10388;52.314;7.938;2023-06-04T17:09:02;301.93;;;287.03;;
20458;SDS011;10388;52.314;7.938;2023-06-04T17:11:33;315.57;;;299.83;;
20458;SDS011;10388;52.314;7.938;2023-06-04T17:14:05;314.87;;;299.57;;
20458;SDS011;10388;52.314;7.938;2023-06-04T17:16:36;347.07;;;329.77;;
20458;SDS011;10388;52.314;7.938;2023-06-04T17:19:07;329.37;;;313.27;;
20458;SDS011;10388;52.314;7.938;2023-06-04T17:21:37;315.60;;;299.97;;
20458;SDS011;10388;52.314;7.938;2023-06-04T17:24:08;324.33;;;308.27;;
20458;SDS011;10388;52.314;7.938;2023-06-04T17:26:38;330.03;;;313.67;;
20458;SDS011;10388;52.314;7.938;2023-06-04T17:29:09;317.10;;;301.17;;
20458;SDS011;10388;52.314;7.938;2023-06-04T17:31:39;313.73;;;298.27;;
20458;SDS011;10388;52.314;7.938;2023-06-04T17:34:10;300.20;;;285.43;;
20458;SDS011;10388;52.314;7.938;2023-06-04T17:36:40;296.73;;;281.97;;
20458;SDS011;10388;52.314;7.938;2023-06-04T17:39:13;297.33;;;282.73;;
20458;SDS011;10388;52.314;7.938;2023-06-04T17:41:43;294.33;;;279.87;;
20458;SDS011;10388;52.314;7.938;2023-06-04T17:44:14;308.07;;;292.70;;
20458;SDS011;10388;52.314;7.938;2023-06-04T17:46:46;356.83;;;338.83;;
20458;SDS011;10388;52.314;7.938;2023-06-04T17:49:16;349.27;;;331.37;;
20458;SDS011;10388;52.314;7.938;2023-06-04T17:51:47;316.57;;;301.00;;
20458;SDS011;10388;52.314;7.938;2023-06-04T17:54:17;335.43;;;318.80;;